createdAt,value
2022-10-05T00:01:57.164Z,63.27
2022-10-05T00:04:30.641Z,63.06
2022-10-05T00:07:10.734Z,63.51
2022-10-05T00:09:44.320Z,63.56
2022-10-05T00:12:20.326Z,63.63
2022-10-05T00:14:57.812Z,63.52
2022-10-05T00:17:32.052Z,63.03
2022-10-05T00:20:17.941Z,63.45
2022-10-05T00:22:56.732Z,63.62
2022-10-05T00:25:30.025Z,63.71
2022-10-05T00:28:02.982Z,63.65
2022-10-05T00:30:35.813Z,63.43
2022-10-05T00:33:10.477Z,63.26
2022-10-05T00:35:43.383Z,63.07
2022-10-05T00:38:16.130Z,63.22
2022-10-05T00:41:01.916Z,63.08
2022-10-05T00:44:03.942Z,63.16
2022-10-05T00:46:48.036Z,63.18
2022-10-05T00:49:37.448Z,62.92
2022-10-05T00:52:23.531Z,63.17
2022-10-05T00:55:04.098Z,62.63
2022-10-05T00:57:47.412Z,62.84
2022-10-05T01:00:25.709Z,62.98
2022-10-05T01:03:04.717Z,62.82
2022-10-05T01:05:55.077Z,62.82
2022-10-05T01:08:38.789Z,63.42
2022-10-05T01:11:18.725Z,63.30
2022-10-05T01:14:00.640Z,63.27
2022-10-05T01:16:42.815Z,63.50
2022-10-05T01:19:35.533Z,63.24
2022-10-05T01:22:21.152Z,63.40
2022-10-05T01:25:06.967Z,63.10
2022-10-05T01:28:01.183Z,63.18
2022-10-05T01:30:40.896Z,63.44
2022-10-05T01:33:21.741Z,63.70
2022-10-05T01:36:04.664Z,63.52
2022-10-05T01:38:47.070Z,64.01
2022-10-05T01:41:33.609Z,63.62
2022-10-05T01:44:14.066Z,63.87
2022-10-05T01:46:55.974Z,63.70
2022-10-05T01:49:38.753Z,63.82
2022-10-05T01:52:28.854Z,63.97
2022-10-05T01:55:14.084Z,63.93
2022-10-05T01:58:00.099Z,63.76
2022-10-05T02:00:43.575Z,63.97
2022-10-05T02:03:20.870Z,64.30
2022-10-05T02:05:59.052Z,63.81
2022-10-05T02:08:37.568Z,63.87
2022-10-05T02:11:14.590Z,63.81
2022-10-05T02:13:54.261Z,63.94
2022-10-05T02:16:34.408Z,64.36
2022-10-05T02:19:14.961Z,64.24
2022-10-05T02:21:54.725Z,64.38
2022-10-05T02:24:33.309Z,63.98
2022-10-05T02:27:07.821Z,64.09
2022-10-05T02:29:46.669Z,64.06
2022-10-05T02:32:26.070Z,64.66
2022-10-05T02:35:02.814Z,63.95
2022-10-05T02:37:50.394Z,63.95
2022-10-05T02:40:37.199Z,63.86
2022-10-05T02:43:20.761Z,63.75
2022-10-05T02:46:02.695Z,64.12
2022-10-05T02:48:47.596Z,63.67
2022-10-05T02:51:24.074Z,63.78
2022-10-05T02:54:07.735Z,63.74
2022-10-05T02:56:48.147Z,63.77
2022-10-05T02:59:28.047Z,63.69
2022-10-05T03:02:13.199Z,63.83
2022-10-05T03:05:00.380Z,63.87
2022-10-05T03:07:38.216Z,64.62
2022-10-05T03:10:15.764Z,64.26
2022-10-05T03:12:56.892Z,63.95
2022-10-05T03:15:51.066Z,64.44
2022-10-05T03:18:36.569Z,64.04
2022-10-05T03:21:21.237Z,64.01
2022-10-05T03:24:07.935Z,63.96
2022-10-05T03:26:54.077Z,64.04
2022-10-05T03:29:36.637Z,63.88
2022-10-05T03:32:14.982Z,64.05
2022-10-05T03:34:52.407Z,64.03
2022-10-05T03:37:40.526Z,63.89
2022-10-05T03:40:26.102Z,63.95
2022-10-05T03:43:28.762Z,63.88
2022-10-05T03:46:09.702Z,64.22
2022-10-05T03:48:52.777Z,64.48
2022-10-05T03:51:32.602Z,64.21
2022-10-05T03:54:21.730Z,64.29
2022-10-05T03:56:58.011Z,63.99
2022-10-05T03:59:39.096Z,64.01
2022-10-05T04:02:21.023Z,64.23
2022-10-05T04:04:57.265Z,64.28
2022-10-05T04:07:42.719Z,64.19
2022-10-05T04:10:25.406Z,64.10
2022-10-05T04:13:04.478Z,63.65
2022-10-05T04:15:41.588Z,64.41
2022-10-05T04:18:25.759Z,64.01
2022-10-05T04:21:03.749Z,64.13
2022-10-05T04:23:46.532Z,63.88
2022-10-05T04:26:31.725Z,64.33
2022-10-05T04:29:13.189Z,63.52
2022-10-05T04:32:02.198Z,64.09
2022-10-05T04:34:47.884Z,64.21
2022-10-05T04:37:26.562Z,64.37
2022-10-05T04:40:19.440Z,64.29
2022-10-05T04:43:05.832Z,63.96
2022-10-05T04:45:53.565Z,63.80
2022-10-05T04:48:47.035Z,63.36
2022-10-05T04:51:35.469Z,63.77
2022-10-05T04:54:23.969Z,64.13
2022-10-05T04:57:01.580Z,63.72
2022-10-05T05:00:05.576Z,63.88
2022-10-05T05:02:45.388Z,64.20
2022-10-05T05:05:44.561Z,64.16
2022-10-05T05:08:41.049Z,63.55
2022-10-05T05:11:28.812Z,64.03
2022-10-05T05:14:22.510Z,64.04
2022-10-05T05:17:02.584Z,64.12
2022-10-05T05:19:46.366Z,64.31
2022-10-05T05:22:25.938Z,64.62
2022-10-05T05:25:19.539Z,64.38
2022-10-05T05:27:55.900Z,64.67
2022-10-05T05:30:44.212Z,64.77
2022-10-05T05:33:27.357Z,64.54
2022-10-05T05:36:32.058Z,64.56
2022-10-05T05:39:24.706Z,64.53
2022-10-05T05:42:02.523Z,64.26
2022-10-05T05:44:44.151Z,64.57
2022-10-05T05:47:22.006Z,64.45
2022-10-05T05:50:12.577Z,63.93
2022-10-05T05:52:50.637Z,63.90
2022-10-05T05:55:30.055Z,64.02
2022-10-05T05:58:14.751Z,64.24
2022-10-05T06:00:53.241Z,64.05
2022-10-05T06:03:34.270Z,64.29
2022-10-05T06:06:11.850Z,64.67
2022-10-05T06:08:48.544Z,64.45
2022-10-05T06:11:33.065Z,64.40
2022-10-05T06:14:13.473Z,64.27
2022-10-05T06:16:51.483Z,64.54
2022-10-05T06:19:27.440Z,64.33
2022-10-05T06:22:08.361Z,64.17
2022-10-05T06:24:52.059Z,64.15
2022-10-05T06:27:27.460Z,64.34
2022-10-05T06:30:11.062Z,64.26
2022-10-05T06:33:04.139Z,64.70
2022-10-05T06:35:49.462Z,64.46
2022-10-05T06:38:44.537Z,64.29
2022-10-05T06:41:28.937Z,64.25
2022-10-05T06:44:10.149Z,64.18
2022-10-05T06:47:07.797Z,64.15
2022-10-05T06:50:14.352Z,64.28
2022-10-05T06:53:34.983Z,64.19
2022-10-05T06:56:12.583Z,63.80
2022-10-05T06:58:55.776Z,64.03
2022-10-05T07:01:42.171Z,63.81
2022-10-05T07:04:46.265Z,63.69
2022-10-05T07:07:26.879Z,63.81
2022-10-05T07:10:16.517Z,64.15
2022-10-05T07:13:07.756Z,63.80
2022-10-05T07:15:45.786Z,64.30
2022-10-05T07:18:35.659Z,64.07
2022-10-05T07:21:17.781Z,63.66
2022-10-05T07:24:01.218Z,63.90
2022-10-05T07:26:39.527Z,63.64
2022-10-05T07:29:25.816Z,63.91
2022-10-05T07:32:08.556Z,63.94
2022-10-05T07:34:52.048Z,63.90
2022-10-05T07:37:51.181Z,63.93
2022-10-05T07:40:30.515Z,64.11
2022-10-05T07:43:15.232Z,64.08
2022-10-05T07:45:54.808Z,63.90
2022-10-05T07:48:35.447Z,64.06
2022-10-05T07:51:17.262Z,64.00
2022-10-05T07:53:59.738Z,64.05
2022-10-05T07:56:39.228Z,63.92
2022-10-05T07:59:21.038Z,63.69
2022-10-05T08:02:03.835Z,63.55
2022-10-05T08:04:48.020Z,63.65
2022-10-05T08:07:21.205Z,63.38
2022-10-05T08:10:01.028Z,63.50
2022-10-05T08:12:45.292Z,63.24
2022-10-05T08:15:23.422Z,63.58
2022-10-05T08:18:00.810Z,63.41
2022-10-05T08:20:41.268Z,63.14
2022-10-05T08:23:23.593Z,63.41
2022-10-05T08:26:07.450Z,63.46
2022-10-05T08:28:47.084Z,63.41
2022-10-05T08:31:25.217Z,63.17
2022-10-05T08:34:07.217Z,63.07
2022-10-05T08:36:54.109Z,62.51
2022-10-05T08:39:31.671Z,63.51
2022-10-05T08:42:52.292Z,63.15
2022-10-05T08:45:56.818Z,62.90
2022-10-05T08:48:49.433Z,62.61
2022-10-05T08:51:55.292Z,62.88
2022-10-05T08:55:05.772Z,62.73
2022-10-05T08:57:55.722Z,62.71
2022-10-05T09:00:40.300Z,62.42
2022-10-05T09:03:49.100Z,62.71
2022-10-05T09:06:59.916Z,62.73
2022-10-05T09:10:01.491Z,62.71
2022-10-05T09:12:57.021Z,62.19
2022-10-05T09:15:58.082Z,62.66
2022-10-05T09:19:02.529Z,61.13
2022-10-05T09:21:43.776Z,61.79
2022-10-05T09:24:28.861Z,61.78
2022-10-05T09:27:10.998Z,61.69
2022-10-05T09:30:07.002Z,62.07
2022-10-05T09:33:13.520Z,60.83
2022-10-05T09:36:13.452Z,60.41
2022-10-05T09:39:20.185Z,61.18
2022-10-05T09:42:37.660Z,60.44
2022-10-05T09:45:37.655Z,61.24
2022-10-05T09:48:47.722Z,60.06
2022-10-05T09:51:44.490Z,60.17
2022-10-05T09:54:43.631Z,60.90
2022-10-05T09:57:40.411Z,60.52
2022-10-05T10:00:35.974Z,60.88
2022-10-05T10:03:52.440Z,60.97
2022-10-05T10:06:43.218Z,60.31
2022-10-05T10:09:25.210Z,60.24
2022-10-05T10:12:19.132Z,60.23
2022-10-05T10:15:15.808Z,61.28
2022-10-05T10:18:05.640Z,60.76
2022-10-05T10:20:57.288Z,60.78
2022-10-05T10:23:55.035Z,60.63
2022-10-05T10:27:10.161Z,61.11
2022-10-05T10:30:04.903Z,61.11
2022-10-05T10:33:17.460Z,61.52
2022-10-05T10:36:03.014Z,61.22
2022-10-05T10:38:54.414Z,60.79
2022-10-05T10:41:53.034Z,60.73
2022-10-05T10:44:58.902Z,61.23
2022-10-05T10:47:51.410Z,60.83
2022-10-05T10:51:01.541Z,61.04
2022-10-05T10:54:18.963Z,61.20
2022-10-05T10:56:59.449Z,60.46
2022-10-05T11:00:04.620Z,60.74
2022-10-05T11:03:04.100Z,61.60
2022-10-05T11:06:08.536Z,61.77
2022-10-05T11:08:56.610Z,60.71
2022-10-05T11:11:58.563Z,61.34
2022-10-05T11:15:01.784Z,61.31
2022-10-05T11:18:05.999Z,60.72
2022-10-05T11:21:04.355Z,61.60
2022-10-05T11:24:08.740Z,60.71
2022-10-05T11:26:56.789Z,61.49
2022-10-05T11:30:17.512Z,60.69
2022-10-05T11:33:42.883Z,60.61
2022-10-05T11:36:47.885Z,60.75
2022-10-05T11:39:33.064Z,60.04
2022-10-05T11:42:27.009Z,60.63
2022-10-05T11:45:22.999Z,60.11
2022-10-05T11:48:14.713Z,61.12
2022-10-05T11:51:02.536Z,60.84
2022-10-05T11:53:41.733Z,59.56
2022-10-05T11:56:24.987Z,59.79
2022-10-05T11:59:01.135Z,60.73
2022-10-05T12:01:40.856Z,61.12
2022-10-05T12:04:20.953Z,61.47
2022-10-05T12:07:04.349Z,59.63
2022-10-05T12:10:17.445Z,60.42
2022-10-05T12:13:05.273Z,60.54
2022-10-05T12:15:45.655Z,60.25
2022-10-05T12:18:25.319Z,60.39
2022-10-05T12:21:03.183Z,60.48
2022-10-05T12:23:40.638Z,60.70
2022-10-05T12:26:17.374Z,60.98
2022-10-05T12:28:54.926Z,60.68
2022-10-05T12:31:36.760Z,60.02
2022-10-05T12:34:20.006Z,59.98
2022-10-05T12:37:04.122Z,60.36
2022-10-05T12:39:44.505Z,60.35
2022-10-05T12:42:29.645Z,60.04
2022-10-05T12:45:16.560Z,61.49
2022-10-05T12:48:05.314Z,60.28
2022-10-05T12:50:42.627Z,60.29
2022-10-05T12:53:29.735Z,59.24
2022-10-05T12:56:05.818Z,60.06
2022-10-05T12:58:50.258Z,59.63
2022-10-05T13:01:31.609Z,59.61
2022-10-05T13:04:18.981Z,59.94
2022-10-05T13:07:09.755Z,59.67
2022-10-05T13:09:54.386Z,59.60
2022-10-05T13:12:39.023Z,59.42
2022-10-05T13:15:20.994Z,60.28
2022-10-05T13:18:07.577Z,59.30
2022-10-05T13:20:46.928Z,59.10
2022-10-05T13:23:25.836Z,59.02
2022-10-05T13:26:04.889Z,59.71
2022-10-05T13:28:45.708Z,57.98
2022-10-05T13:31:25.645Z,59.68
2022-10-05T13:34:13.745Z,58.92
2022-10-05T13:36:58.152Z,59.57
2022-10-05T13:39:43.306Z,58.46
2022-10-05T13:42:18.856Z,58.20
2022-10-05T13:44:58.870Z,58.63
2022-10-05T13:47:39.886Z,58.68
2022-10-05T13:50:18.946Z,58.57
2022-10-05T13:53:00.440Z,59.25
2022-10-05T13:55:45.791Z,58.86
2022-10-05T13:58:29.176Z,59.76
2022-10-05T14:01:06.986Z,58.87
2022-10-05T14:03:41.357Z,58.34
2022-10-05T14:06:27.558Z,58.23
2022-10-05T14:09:00.311Z,59.06
2022-10-05T14:11:35.163Z,59.49
2022-10-05T14:14:15.892Z,57.70
2022-10-05T14:16:52.778Z,58.33
2022-10-05T14:19:31.987Z,58.15
2022-10-05T14:22:13.523Z,59.22
2022-10-05T14:24:52.547Z,58.43
2022-10-05T14:27:27.038Z,58.89
2022-10-05T14:30:02.104Z,59.24
2022-10-05T14:32:49.471Z,57.81
2022-10-05T14:35:25.577Z,58.17
2022-10-05T14:38:00.808Z,58.67
2022-10-05T14:40:35.707Z,58.26
2022-10-05T14:43:27.086Z,58.50
2022-10-05T14:46:02.628Z,58.28
2022-10-05T14:48:43.072Z,58.37
2022-10-05T14:51:31.742Z,58.84
2022-10-05T14:54:23.316Z,57.95
2022-10-05T14:57:06.325Z,58.11
2022-10-05T14:59:55.201Z,58.45
2022-10-05T15:02:48.301Z,57.38
2022-10-05T15:05:31.293Z,57.85
2022-10-05T15:08:20.984Z,57.60
2022-10-05T15:11:00.221Z,58.70
2022-10-05T15:13:37.289Z,57.77
2022-10-05T15:16:19.121Z,58.41
2022-10-05T15:19:00.055Z,58.92
2022-10-05T15:21:42.228Z,58.80
2022-10-05T15:24:20.301Z,58.22
2022-10-05T15:26:55.504Z,58.37
2022-10-05T15:29:47.319Z,58.75
2022-10-05T15:32:32.420Z,58.35
2022-10-05T15:35:27.037Z,57.90
2022-10-05T15:38:10.010Z,58.21
2022-10-05T15:40:51.526Z,58.34
2022-10-05T15:43:24.445Z,57.81
2022-10-05T15:46:03.824Z,57.93
2022-10-05T15:48:47.315Z,58.54
2022-10-05T15:51:31.730Z,58.30
2022-10-05T15:54:28.537Z,58.73
2022-10-05T15:57:09.818Z,58.18
2022-10-05T15:59:52.353Z,58.17
2022-10-05T16:02:30.875Z,58.15
2022-10-05T16:05:17.189Z,58.13
2022-10-05T16:08:08.162Z,58.32
2022-10-05T16:10:46.685Z,58.79
2022-10-05T16:13:29.550Z,58.65
2022-10-05T16:16:17.955Z,58.79
2022-10-05T16:19:04.122Z,58.60
2022-10-05T16:21:46.434Z,58.83
2022-10-05T16:24:40.902Z,59.00
2022-10-05T16:27:21.185Z,58.90
2022-10-05T16:30:01.825Z,58.41
2022-10-05T16:32:38.571Z,58.51
2022-10-05T16:35:25.691Z,58.57
2022-10-05T16:38:07.283Z,58.75
2022-10-05T16:40:45.608Z,58.76
2022-10-05T16:43:29.076Z,58.87
2022-10-05T16:46:12.047Z,58.62
2022-10-05T16:48:53.815Z,58.52
2022-10-05T16:51:32.476Z,58.73
2022-10-05T16:54:18.397Z,59.31
2022-10-05T16:56:55.247Z,58.57
2022-10-05T17:00:01.033Z,58.98
2022-10-05T17:02:52.180Z,59.19
2022-10-05T17:05:44.224Z,59.13
2022-10-05T17:08:36.779Z,59.80
2022-10-05T17:11:21.146Z,59.67
2022-10-05T17:14:11.635Z,59.51
2022-10-05T17:16:58.183Z,60.33
2022-10-05T17:20:00.436Z,59.77
2022-10-05T17:22:39.861Z,60.18
2022-10-05T17:25:18.225Z,59.59
2022-10-05T17:27:53.596Z,60.19
2022-10-05T17:30:51.398Z,59.99
2022-10-05T17:33:27.489Z,60.43
2022-10-05T17:36:19.456Z,60.38
2022-10-05T17:39:13.085Z,59.95
2022-10-05T17:41:46.887Z,60.21
2022-10-05T17:44:27.204Z,60.45
2022-10-05T17:47:01.416Z,60.33
2022-10-05T17:50:16.954Z,60.40
2022-10-05T17:53:38.574Z,60.82
2022-10-05T17:56:11.405Z,60.77
2022-10-05T17:59:02.835Z,61.42
2022-10-05T18:01:38.593Z,61.94
2022-10-05T18:04:30.386Z,62.20
2022-10-05T18:07:06.581Z,62.34
2022-10-05T18:09:56.629Z,62.65
2022-10-05T18:12:48.618Z,63.07
2022-10-05T18:15:45.050Z,63.42
2022-10-05T18:18:55.974Z,63.75
2022-10-05T18:21:33.162Z,63.44
2022-10-05T18:24:39.787Z,63.91
2022-10-05T18:27:58.369Z,64.03
2022-10-05T18:30:39.748Z,64.77
2022-10-05T18:33:54.129Z,64.47
2022-10-05T18:36:40.220Z,63.93
2022-10-05T18:39:27.623Z,63.96
2022-10-05T18:42:11.719Z,64.08
2022-10-05T18:44:49.710Z,63.94
2022-10-05T18:47:35.082Z,64.04
2022-10-05T18:50:20.929Z,63.88
2022-10-05T18:53:08.786Z,63.43
2022-10-05T18:55:46.627Z,63.95
2022-10-05T18:58:43.479Z,63.27
2022-10-05T19:01:32.369Z,63.47
2022-10-05T19:04:19.022Z,63.46
2022-10-05T19:06:59.948Z,63.51
2022-10-05T19:09:50.688Z,63.16
2022-10-05T19:12:36.993Z,63.18
2022-10-05T19:15:22.983Z,63.72
2022-10-05T19:18:30.769Z,63.62
2022-10-05T19:21:13.982Z,63.54
2022-10-05T19:24:04.427Z,63.54
2022-10-05T19:26:53.637Z,64.17
2022-10-05T19:29:39.428Z,64.04
2022-10-05T19:32:19.894Z,64.24
2022-10-05T19:35:10.007Z,63.91
2022-10-05T19:37:54.660Z,63.64
2022-10-05T19:40:36.363Z,63.95
2022-10-05T19:43:26.463Z,64.02
2022-10-05T19:46:16.322Z,63.58
2022-10-05T19:49:00.903Z,63.84
2022-10-05T19:51:37.325Z,63.47
2022-10-05T19:54:23.134Z,63.79
2022-10-05T19:56:57.723Z,63.65
2022-10-05T19:59:31.787Z,63.66
2022-10-05T20:02:06.394Z,63.71
2022-10-05T20:04:43.073Z,63.75
2022-10-05T20:07:18.053Z,63.88
2022-10-05T20:09:59.814Z,64.47
2022-10-05T20:12:53.115Z,64.13
2022-10-05T20:15:46.630Z,64.47
2022-10-05T20:18:59.782Z,64.59
2022-10-05T20:21:49.926Z,64.81
2022-10-05T20:24:25.682Z,65.25
2022-10-05T20:27:16.212Z,64.95
2022-10-05T20:29:49.150Z,64.77
2022-10-05T20:32:21.901Z,64.87
2022-10-05T20:34:56.547Z,65.61
2022-10-05T20:37:29.422Z,65.57
2022-10-05T20:40:02.244Z,64.83
2022-10-05T20:42:37.370Z,64.81
2022-10-05T20:45:12.001Z,64.51
2022-10-05T20:47:46.955Z,64.75
2022-10-05T20:50:22.197Z,64.74
2022-10-05T20:52:55.450Z,65.19
2022-10-05T20:55:31.394Z,65.53
2022-10-05T20:58:05.842Z,65.64
2022-10-05T21:00:56.374Z,64.87
2022-10-05T21:03:29.208Z,64.72
2022-10-05T21:06:03.214Z,64.79
2022-10-05T21:08:37.021Z,64.43
2022-10-05T21:11:09.897Z,64.68
2022-10-05T21:13:45.800Z,64.34
2022-10-05T21:16:19.933Z,64.17
2022-10-05T21:18:53.681Z,64.14
2022-10-05T21:21:28.262Z,64.68
2022-10-05T21:24:01.495Z,63.95
2022-10-05T21:26:35.151Z,63.87
2022-10-05T21:29:12.695Z,64.26
2022-10-05T21:31:45.993Z,63.94
2022-10-05T21:34:18.824Z,63.48
2022-10-05T21:36:51.969Z,63.47
2022-10-05T21:39:25.690Z,63.76
2022-10-05T21:42:01.332Z,64.04
2022-10-05T21:44:35.616Z,62.88
2022-10-05T21:47:08.685Z,63.20
2022-10-05T21:49:42.792Z,63.17
2022-10-05T21:52:16.491Z,63.15
2022-10-05T21:54:49.834Z,63.52
2022-10-05T21:57:23.172Z,63.72
2022-10-05T21:59:58.409Z,62.39
2022-10-05T22:02:32.573Z,64.01
2022-10-05T22:05:05.811Z,63.42
2022-10-05T22:07:38.634Z,63.91
2022-10-05T22:10:11.807Z,63.94
2022-10-05T22:12:47.265Z,64.67
2022-10-05T22:15:21.994Z,64.78
2022-10-05T22:17:55.520Z,63.59
2022-10-05T22:20:28.827Z,63.36
2022-10-05T22:23:04.219Z,62.62
2022-10-05T22:25:37.328Z,62.92
2022-10-05T22:28:14.549Z,62.58
2022-10-05T22:30:49.301Z,63.31
2022-10-05T22:33:22.097Z,64.67
2022-10-05T22:35:55.778Z,63.09
2022-10-05T22:38:31.100Z,62.96
2022-10-05T22:41:04.747Z,62.66
2022-10-05T22:43:37.621Z,62.91
2022-10-05T22:46:13.299Z,62.57
2022-10-05T22:48:46.497Z,62.66
2022-10-05T22:51:19.765Z,63.07
2022-10-05T22:53:55.655Z,62.67
2022-10-05T22:56:31.162Z,62.88
2022-10-05T22:59:04.120Z,62.29
2022-10-05T23:01:38.440Z,63.29
2022-10-05T23:04:11.920Z,62.67
2022-10-05T23:06:45.424Z,63.04
2022-10-05T23:09:18.398Z,62.51
2022-10-05T23:11:54.047Z,62.70
2022-10-05T23:14:29.337Z,63.13
2022-10-05T23:17:03.874Z,62.90
2022-10-05T23:19:36.824Z,63.83
2022-10-05T23:22:11.905Z,63.00
2022-10-05T23:24:59.928Z,64.56
2022-10-05T23:27:38.601Z,63.35
2022-10-05T23:30:13.657Z,63.12
2022-10-05T23:32:48.262Z,63.64
2022-10-05T23:35:21.087Z,62.73
2022-10-05T23:37:54.520Z,62.25
2022-10-05T23:40:27.741Z,62.30
2022-10-05T23:43:01.487Z,62.52
2022-10-05T23:45:34.793Z,62.70
2022-10-05T23:48:08.777Z,63.28
2022-10-05T23:50:42.214Z,62.94
2022-10-05T23:53:15.125Z,62.98
2022-10-05T23:55:51.065Z,62.43
2022-10-05T23:58:24.410Z,63.32
